createdAt,value
2018-02-26T00:01:11.022Z,2.62
2018-02-26T00:03:49.630Z,2.97
2018-02-26T00:06:31.209Z,4.10
2018-02-26T00:09:10.255Z,4.37
2018-02-26T00:11:49.105Z,1.73
2018-02-26T00:14:30.411Z,2.37
2018-02-26T00:17:12.763Z,4.03
2018-02-26T00:19:51.614Z,3.05
2018-02-26T00:22:53.779Z,2.62
2018-02-26T00:25:33.310Z,4.97
2018-02-26T00:28:12.382Z,3.62
2018-02-26T00:30:53.474Z,3.35
2018-02-26T00:33:37.577Z,2.67
2018-02-26T00:36:16.021Z,4.12
2018-02-26T00:38:56.418Z,1.83
2018-02-26T00:41:35.713Z,1.60
2018-02-26T00:44:16.411Z,1.83
2018-02-26T00:46:56.026Z,1.60
2018-02-26T00:49:34.574Z,1.33
2018-02-26T00:52:14.447Z,1.70
2018-02-26T00:54:53.087Z,1.50
2018-02-26T00:57:37.502Z,3.37
2018-02-26T01:00:15.823Z,4.72
2018-02-26T01:02:57.123Z,1.83
2018-02-26T01:05:35.637Z,2.90
2018-02-26T01:08:15.165Z,2.12
2018-02-26T01:17:51.462Z,2.05
2018-02-26T01:20:31.882Z,1.87
2018-02-26T01:23:10.364Z,2.10
2018-02-26T01:25:50.494Z,2.30
2018-02-26T01:28:32.206Z,2.87
2018-02-26T01:31:14.238Z,3.30
2018-02-26T01:33:57.540Z,3.67
2018-02-26T01:36:37.002Z,3.80
2018-02-26T01:39:14.811Z,4.10
2018-02-26T01:44:39.453Z,4.15
2018-02-26T01:47:20.129Z,4.30
2018-02-26T01:52:48.569Z,3.92
2018-02-26T01:55:30.774Z,3.60
2018-02-26T01:58:10.098Z,5.55
2018-02-26T02:00:50.882Z,4.78
2018-02-26T02:03:30.204Z,6.18
2018-02-26T02:06:08.615Z,4.28
2018-02-26T02:08:50.987Z,3.55
2018-02-26T02:11:31.547Z,2.20
2018-02-26T02:14:10.885Z,1.87
2018-02-26T02:16:50.503Z,1.33
2018-02-26T02:19:30.796Z,1.30
2018-02-26T02:22:10.664Z,1.83
2018-02-26T02:24:51.282Z,1.60
2018-02-26T02:27:29.728Z,1.70
2018-02-26T02:30:08.040Z,1.50
2018-02-26T02:32:47.497Z,2.37
2018-02-26T02:35:25.994Z,1.55
2018-02-26T02:38:05.398Z,2.03
2018-02-26T02:40:43.661Z,2.70
2018-02-26T02:43:22.119Z,2.08
2018-02-26T02:46:01.752Z,2.50
2018-02-26T02:48:40.136Z,3.20
2018-02-26T02:51:22.232Z,3.40
2018-02-26T02:54:01.269Z,3.95
2018-02-26T02:56:40.583Z,3.25
2018-02-26T02:59:19.009Z,3.70
2018-02-26T03:02:01.783Z,2.10
2018-02-26T03:04:41.993Z,2.97
2018-02-26T03:07:23.269Z,2.65
2018-02-26T03:10:06.298Z,2.55
2018-02-26T03:12:48.288Z,2.75
2018-02-26T03:15:32.598Z,2.67
2018-02-26T03:18:13.245Z,2.97
2018-02-26T03:20:52.369Z,3.78
2018-02-26T03:23:30.789Z,6.80
2018-02-26T03:26:09.373Z,6.15
2018-02-26T03:28:48.125Z,9.55
2018-02-26T03:31:26.469Z,19.65
2018-02-26T03:34:07.073Z,12.32
2018-02-26T03:36:46.477Z,14.18
2018-02-26T03:39:24.867Z,7.18
2018-02-26T03:42:04.555Z,7.75
2018-02-26T03:44:43.170Z,5.22
2018-02-26T03:47:23.589Z,6.18
2018-02-26T03:50:03.324Z,6.60
2018-02-26T03:52:43.811Z,5.22
2018-02-26T03:55:23.415Z,5.32
2018-02-26T03:58:07.475Z,6.10
2018-02-26T04:00:47.127Z,6.70
2018-02-26T04:03:26.818Z,7.10
2018-02-26T04:06:05.081Z,10.25
2018-02-26T04:08:44.569Z,8.00
2018-02-26T04:11:24.923Z,11.73
2018-02-26T04:14:04.535Z,9.73
2018-02-26T04:16:43.601Z,12.45
2018-02-26T04:19:22.558Z,21.02
2018-02-26T04:22:01.763Z,28.75
2018-02-26T04:24:42.768Z,33.70
2018-02-26T04:30:03.654Z,13.77
2018-02-26T04:32:42.058Z,13.45
2018-02-26T04:35:20.592Z,13.82
2018-02-26T04:40:43.806Z,15.35
2018-02-26T04:43:23.013Z,15.68
2018-02-26T04:46:02.013Z,15.60
2018-02-26T04:48:40.724Z,13.35
2018-02-26T04:51:21.209Z,17.15
2018-02-26T04:53:59.802Z,15.80
2018-02-26T04:56:42.622Z,16.80
2018-02-26T04:59:25.409Z,16.48
2018-02-26T05:02:06.139Z,20.23
2018-02-26T05:07:32.589Z,23.25
2018-02-26T05:10:10.961Z,26.10
2018-02-26T05:15:32.314Z,32.83
2018-02-26T05:18:10.789Z,47.83
2018-02-26T05:20:51.906Z,46.42
2018-02-26T05:23:32.337Z,32.10
2018-02-26T05:26:11.693Z,32.47
2018-02-26T05:28:50.065Z,23.95
2018-02-26T05:31:28.435Z,20.55
2018-02-26T05:34:07.128Z,20.92
2018-02-26T05:36:47.456Z,20.80
2018-02-26T05:39:25.928Z,17.60
2018-02-26T05:42:04.174Z,16.62
2018-02-26T05:44:42.590Z,12.30
2018-02-26T05:47:23.147Z,12.00
2018-02-26T05:50:03.635Z,10.85
2018-02-26T05:52:42.355Z,12.75
2018-02-26T05:55:21.219Z,11.88
2018-02-26T05:58:00.734Z,11.15
2018-02-26T06:00:39.206Z,16.17
2018-02-26T06:03:17.637Z,13.05
2018-02-26T06:05:58.084Z,13.52
2018-02-26T06:08:36.628Z,17.12
2018-02-26T06:11:15.510Z,14.52
2018-02-26T06:13:57.885Z,12.50
2018-02-26T06:16:36.414Z,9.60
2018-02-26T06:19:15.890Z,10.27
2018-02-26T06:21:54.387Z,13.40
2018-02-26T06:24:32.846Z,11.38
2018-02-26T06:27:13.158Z,10.07
2018-02-26T06:29:53.666Z,11.10
2018-02-26T06:32:32.358Z,15.77
2018-02-26T06:35:10.893Z,14.85
2018-02-26T06:37:51.216Z,16.40
2018-02-26T06:40:34.868Z,24.37
2018-02-26T06:43:13.787Z,42.60
2018-02-26T06:45:52.325Z,27.55
2018-02-26T06:48:30.974Z,18.85
2018-02-26T06:51:09.485Z,18.12
2018-02-26T06:53:48.158Z,12.60
2018-02-26T06:56:27.070Z,10.70
2018-02-26T06:59:08.550Z,12.10
2018-02-26T07:01:47.186Z,15.23
2018-02-26T07:04:25.814Z,14.80
2018-02-26T07:07:04.458Z,18.73
2018-02-26T07:09:46.152Z,16.87
2018-02-26T07:12:24.039Z,13.98
2018-02-26T07:15:04.566Z,14.15
2018-02-26T07:17:43.069Z,14.05
2018-02-26T07:20:21.661Z,16.05
2018-02-26T07:23:03.061Z,15.07
2018-02-26T07:25:41.890Z,10.55
2018-02-26T07:28:21.108Z,11.82
2018-02-26T07:31:00.933Z,12.37
2018-02-26T07:33:42.638Z,14.85
2018-02-26T07:36:22.292Z,11.85
2018-02-26T07:39:00.900Z,10.60
2018-02-26T07:41:40.531Z,9.73
2018-02-26T07:44:20.067Z,11.00
2018-02-26T07:46:58.898Z,9.07
2018-02-26T07:49:40.603Z,9.43
2018-02-26T07:52:19.532Z,9.45
2018-02-26T07:54:59.688Z,9.50
2018-02-26T07:57:38.404Z,9.07
2018-02-26T08:00:17.032Z,11.35
2018-02-26T08:02:55.627Z,18.37
2018-02-26T08:05:32.933Z,13.20
2018-02-26T08:08:11.572Z,9.52
2018-02-26T08:10:51.187Z,10.20
2018-02-26T08:13:29.724Z,12.37
2018-02-26T08:16:10.289Z,13.45
2018-02-26T08:18:48.001Z,14.38
2018-02-26T08:21:28.574Z,18.80
2018-02-26T08:24:07.423Z,18.37
2018-02-26T08:26:47.034Z,12.98
2018-02-26T08:29:25.570Z,23.80
2018-02-26T08:32:08.163Z,17.95
2018-02-26T08:34:46.637Z,13.93
2018-02-26T08:37:25.596Z,14.32
2018-02-26T08:40:06.196Z,13.55
2018-02-26T08:42:47.747Z,18.87
2018-02-26T08:45:28.335Z,20.50
2018-02-26T08:48:07.960Z,15.68
2018-02-26T08:50:46.855Z,17.10
2018-02-26T08:53:27.426Z,16.25
2018-02-26T08:56:05.684Z,21.10
2018-02-26T08:58:44.297Z,17.15
2018-02-26T09:01:22.863Z,18.70
2018-02-26T09:04:02.586Z,22.75
2018-02-26T09:06:41.053Z,18.40
2018-02-26T09:09:19.585Z,19.80
2018-02-26T09:11:59.221Z,21.55
2018-02-26T09:14:37.736Z,22.55
2018-02-26T09:17:18.324Z,20.10
2018-02-26T09:19:56.930Z,21.98
2018-02-26T09:22:36.422Z,22.35
2018-02-26T09:25:15.103Z,19.62
2018-02-26T09:27:53.633Z,21.10
2018-02-26T09:30:33.120Z,19.45
2018-02-26T09:33:11.500Z,27.70
2018-02-26T09:35:50.097Z,26.20
2018-02-26T09:38:28.728Z,25.77
2018-02-26T09:41:12.462Z,22.20
2018-02-26T09:43:50.925Z,25.08
2018-02-26T09:46:29.374Z,20.20
2018-02-26T09:49:09.133Z,19.67
2018-02-26T09:51:47.689Z,18.20
2018-02-26T09:54:26.363Z,22.25
2018-02-26T09:57:04.964Z,19.45
2018-02-26T09:59:44.634Z,19.77
2018-02-26T10:02:23.154Z,23.10
2018-02-26T10:05:01.787Z,20.33
2018-02-26T10:07:40.588Z,38.03
2018-02-26T10:10:18.797Z,49.08
2018-02-26T10:12:57.603Z,28.60
2018-02-26T10:15:36.143Z,33.35
2018-02-26T10:18:14.927Z,29.85
2018-02-26T10:20:52.660Z,30.23
2018-02-26T10:23:31.453Z,24.40
2018-02-26T10:26:09.816Z,20.33
2018-02-26T10:28:48.424Z,24.60
2018-02-26T10:31:26.924Z,24.23
2018-02-26T10:34:05.729Z,22.98
2018-02-26T10:36:45.973Z,21.10
2018-02-26T10:39:24.986Z,20.52
2018-02-26T10:42:06.766Z,25.90
2018-02-26T10:44:45.092Z,24.45
2018-02-26T10:47:23.925Z,26.85
2018-02-26T10:50:02.313Z,28.73
2018-02-26T10:52:42.046Z,30.98
2018-02-26T10:55:20.448Z,37.28
2018-02-26T10:57:59.901Z,43.08
2018-02-26T11:00:39.646Z,46.78
2018-02-26T11:03:18.260Z,47.38
2018-02-26T11:05:56.876Z,57.47
2018-02-26T11:08:35.649Z,50.28
2018-02-26T11:11:13.980Z,53.25
2018-02-26T11:13:52.644Z,54.15
2018-02-26T11:16:32.202Z,43.67
2018-02-26T11:19:10.839Z,33.30
2018-02-26T11:21:49.249Z,28.05
2018-02-26T11:24:27.801Z,29.33
2018-02-26T11:27:06.439Z,29.25
2018-02-26T11:29:45.915Z,30.60
2018-02-26T11:32:24.594Z,33.65
2018-02-26T11:35:03.167Z,29.40
2018-02-26T11:37:41.644Z,37.08
2018-02-26T11:40:20.413Z,32.05
2018-02-26T11:42:58.999Z,33.75
2018-02-26T11:45:37.696Z,45.05
2018-02-26T11:48:17.244Z,34.70
2018-02-26T11:50:56.852Z,27.33
2018-02-26T11:53:35.502Z,27.92
2018-02-26T11:56:13.188Z,27.62
2018-02-26T11:58:52.818Z,27.77
2018-02-26T12:01:32.317Z,26.85
2018-02-26T12:04:12.129Z,26.17
2018-02-26T12:06:50.692Z,24.17
2018-02-26T12:09:31.395Z,27.20
2018-02-26T12:12:11.053Z,23.30
2018-02-26T12:14:50.165Z,26.42
2018-02-26T12:17:28.286Z,31.95
2018-02-26T12:20:05.981Z,24.60
2018-02-26T12:22:44.697Z,31.92
2018-02-26T12:25:24.398Z,39.53
2018-02-26T12:28:02.887Z,23.92
2018-02-26T12:30:40.483Z,19.75
2018-02-26T12:33:18.970Z,18.87
2018-02-26T12:35:57.598Z,25.65
2018-02-26T12:38:35.592Z,22.08
2018-02-26T12:41:14.351Z,21.87
2018-02-26T12:43:52.632Z,22.73
2018-02-26T12:46:31.333Z,22.42
2018-02-26T12:49:09.782Z,20.55
2018-02-26T12:51:48.401Z,20.62
2018-02-26T12:54:26.900Z,22.40
2018-02-26T12:57:05.402Z,19.55
2018-02-26T12:59:44.120Z,19.10
2018-02-26T13:02:22.560Z,22.77
2018-02-26T13:05:01.418Z,19.62
2018-02-26T13:07:41.004Z,20.25
2018-02-26T13:10:19.650Z,21.50
2018-02-26T13:12:58.151Z,20.23
2018-02-26T13:15:36.499Z,19.85
2018-02-26T13:21:01.086Z,19.52
2018-02-26T13:23:39.573Z,23.15
2018-02-26T13:26:18.185Z,22.67
2018-02-26T13:28:56.755Z,24.50
2018-02-26T13:31:36.508Z,21.08
2018-02-26T13:34:17.135Z,23.02
2018-02-26T13:36:55.239Z,22.65
2018-02-26T13:39:34.161Z,20.25
2018-02-26T13:42:12.623Z,22.08
2018-02-26T13:44:51.263Z,17.35
2018-02-26T13:47:30.926Z,21.60
2018-02-26T13:50:10.014Z,20.83
2018-02-26T13:52:48.184Z,18.98
2018-02-26T13:55:26.883Z,18.50
2018-02-26T13:58:07.424Z,18.35
2018-02-26T14:00:46.181Z,18.87
2018-02-26T14:03:25.083Z,18.70
2018-02-26T14:06:03.607Z,16.65
2018-02-26T14:08:42.106Z,13.85
2018-02-26T14:11:20.788Z,16.23
2018-02-26T14:14:00.360Z,13.90
2018-02-26T14:16:39.144Z,17.30
2018-02-26T14:19:17.852Z,19.87
2018-02-26T14:24:39.997Z,17.52
2018-02-26T14:27:18.659Z,16.40
2018-02-26T14:35:19.948Z,19.27
2018-02-26T14:37:58.482Z,17.50
2018-02-26T14:40:37.177Z,16.58
2018-02-26T14:43:17.520Z,16.62
2018-02-26T14:45:57.488Z,16.87
2018-02-26T14:48:35.761Z,18.27
2018-02-26T14:51:16.404Z,20.67
2018-02-26T14:53:54.906Z,16.52
2018-02-26T14:56:33.343Z,17.27
2018-02-26T14:59:13.003Z,19.27
2018-02-26T15:01:52.692Z,21.33
2018-02-26T15:04:32.001Z,21.27
2018-02-26T15:07:10.438Z,22.60
2018-02-26T15:09:49.843Z,22.60
2018-02-26T15:12:30.142Z,26.87
2018-02-26T15:15:08.945Z,23.17
2018-02-26T15:17:48.652Z,24.80
2018-02-26T15:20:27.954Z,25.20
2018-02-26T15:23:06.529Z,25.62
2018-02-26T15:25:46.022Z,27.15
2018-02-26T15:28:24.533Z,24.75
2018-02-26T15:31:03.027Z,25.05
2018-02-26T15:33:41.552Z,22.58
2018-02-26T15:36:20.046Z,23.67
2018-02-26T15:38:58.626Z,21.42
2018-02-26T15:41:36.900Z,22.17
2018-02-26T15:44:14.378Z,23.42
2018-02-26T15:46:52.932Z,22.33
2018-02-26T15:49:32.263Z,24.77
2018-02-26T15:52:11.816Z,22.50
2018-02-26T15:54:50.304Z,22.50
2018-02-26T15:57:28.866Z,22.95
2018-02-26T16:00:08.257Z,22.33
2018-02-26T16:02:47.020Z,24.40
2018-02-26T16:05:26.386Z,22.67
2018-02-26T16:08:04.744Z,21.60
2018-02-26T16:10:43.194Z,21.35
2018-02-26T16:13:21.734Z,21.62
2018-02-26T16:15:59.975Z,20.45
2018-02-26T16:18:38.503Z,20.35
2018-02-26T16:21:17.869Z,19.35
2018-02-26T16:23:56.293Z,19.00
2018-02-26T16:26:35.697Z,18.92
2018-02-26T16:29:14.010Z,20.20
2018-02-26T16:31:53.463Z,20.50
2018-02-26T16:34:32.076Z,21.65
2018-02-26T16:37:10.452Z,23.27
2018-02-26T16:39:49.008Z,24.55
2018-02-26T16:42:27.486Z,21.23
2018-02-26T16:45:06.917Z,24.20
2018-02-26T16:47:46.333Z,22.98
2018-02-26T16:50:27.917Z,21.12
2018-02-26T16:53:06.321Z,20.52
2018-02-26T16:55:45.715Z,18.12
2018-02-26T16:58:25.052Z,20.20
2018-02-26T17:01:04.460Z,21.55
2018-02-26T17:03:43.765Z,20.00
2018-02-26T17:06:22.302Z,18.30
2018-02-26T17:09:00.964Z,22.25
2018-02-26T17:11:39.687Z,20.58
2018-02-26T17:14:18.316Z,20.23
2018-02-26T17:16:56.777Z,22.02
2018-02-26T17:19:35.321Z,22.02
2018-02-26T17:22:13.838Z,18.45
2018-02-26T17:24:52.337Z,21.73
2018-02-26T17:27:30.717Z,22.08
2018-02-26T17:30:10.302Z,23.85
2018-02-26T17:32:48.818Z,20.45
2018-02-26T17:35:27.398Z,24.20
2018-02-26T17:38:07.007Z,20.75
2018-02-26T17:40:45.466Z,22.33
2018-02-26T17:43:25.036Z,24.55
2018-02-26T17:46:04.342Z,24.50
2018-02-26T17:48:44.969Z,20.83
2018-02-26T17:51:23.633Z,20.30
2018-02-26T17:54:01.907Z,16.23
2018-02-26T17:56:40.528Z,19.70
2018-02-26T17:59:18.577Z,16.23
2018-02-26T18:01:58.100Z,16.85
2018-02-26T18:04:37.257Z,13.07
2018-02-26T18:07:15.702Z,12.65
2018-02-26T18:09:54.537Z,13.90
2018-02-26T18:12:35.141Z,14.85
2018-02-26T18:15:15.985Z,9.05
2018-02-26T18:17:54.305Z,9.98
2018-02-26T18:20:37.151Z,8.93
2018-02-26T18:23:16.512Z,9.50
2018-02-26T18:25:56.180Z,10.68
2018-02-26T18:28:35.832Z,8.40
2018-02-26T19:00:08.067Z,12.52
2018-02-26T19:02:46.562Z,10.18
2018-02-26T19:05:24.989Z,11.48
2018-02-26T19:08:03.342Z,10.35
2018-02-26T19:10:41.798Z,10.15
2018-02-26T19:13:21.289Z,10.45
2018-02-26T19:15:59.668Z,10.05
2018-02-26T19:18:38.385Z,12.55
2018-02-26T19:21:17.022Z,10.80
2018-02-26T19:23:56.414Z,9.10
2018-02-26T19:26:34.732Z,10.43
2018-02-26T19:29:13.211Z,10.65
2018-02-26T19:31:52.635Z,11.65
2018-02-26T19:34:31.133Z,10.23
2018-02-26T19:37:09.696Z,10.32
2018-02-26T19:39:48.161Z,9.13
2018-02-26T19:42:26.705Z,8.07
2018-02-26T19:45:05.303Z,7.50
2018-02-26T19:47:44.861Z,8.35
2018-02-26T19:50:23.402Z,8.45
2018-02-26T19:53:01.975Z,8.43
2018-02-26T19:55:41.483Z,9.43
2018-02-26T19:58:20.070Z,9.50
2018-02-26T20:00:59.616Z,10.05
2018-02-26T20:03:39.090Z,10.47
2018-02-26T20:06:17.612Z,8.52
2018-02-26T20:08:56.844Z,9.85
2018-02-26T20:11:35.844Z,8.80
2018-02-26T20:14:15.077Z,10.55
2018-02-26T20:16:53.595Z,9.77
2018-02-26T20:19:32.056Z,10.10
2018-02-26T20:22:10.432Z,9.77
2018-02-26T20:24:49.098Z,9.82
2018-02-26T20:27:27.672Z,9.45
2018-02-26T20:30:06.148Z,9.75
2018-02-26T20:32:45.697Z,10.18
2018-02-26T20:35:26.126Z,8.98
2018-02-26T20:38:05.711Z,8.80
2018-02-26T20:40:45.113Z,9.57
2018-02-26T20:43:24.792Z,9.20
2018-02-26T20:46:02.869Z,9.30
2018-02-26T20:48:41.202Z,9.37
2018-02-26T20:51:19.708Z,9.27
2018-02-26T20:53:58.250Z,9.80
2018-02-26T20:56:38.578Z,9.73
2018-02-26T20:59:17.210Z,9.45
2018-02-26T21:01:55.711Z,12.48
2018-02-26T21:04:34.921Z,11.95
2018-02-26T21:07:16.081Z,15.30
2018-02-26T21:09:55.681Z,13.95
2018-02-26T21:12:34.190Z,15.88
2018-02-26T21:15:13.576Z,16.27
2018-02-26T21:17:53.160Z,14.32
2018-02-26T21:20:31.757Z,14.27
2018-02-26T21:23:10.136Z,12.77
2018-02-26T21:25:48.769Z,11.35
2018-02-26T21:28:28.219Z,10.90
2018-02-26T21:31:06.846Z,13.38
2018-02-26T21:33:45.588Z,11.65
2018-02-26T21:36:24.062Z,11.60
2018-02-26T21:39:02.678Z,11.68
2018-02-26T21:41:42.136Z,12.30
2018-02-26T21:44:20.686Z,11.88
2018-02-26T21:46:59.225Z,11.52
2018-02-26T21:49:37.691Z,11.50
2018-02-26T21:52:17.197Z,10.77
2018-02-26T21:54:55.572Z,10.35
2018-02-26T21:57:36.886Z,9.38
2018-02-26T22:00:16.532Z,9.70
2018-02-26T22:02:56.580Z,10.40
2018-02-26T22:05:36.610Z,9.68
2018-02-26T22:08:17.001Z,8.90
2018-02-26T22:10:55.635Z,8.50
2018-02-26T22:13:35.240Z,9.73
2018-02-26T22:16:13.653Z,9.90
2018-02-26T22:18:53.912Z,8.88
2018-02-26T22:21:32.766Z,10.95
2018-02-26T22:24:11.251Z,9.90
2018-02-26T22:26:50.844Z,8.02
2018-02-26T22:29:30.444Z,9.57
2018-02-26T22:32:08.966Z,9.30
2018-02-26T22:34:47.384Z,9.98
2018-02-26T22:37:26.000Z,8.95
2018-02-26T22:40:06.698Z,8.20
2018-02-26T22:42:46.963Z,8.52
2018-02-26T22:45:25.594Z,8.05
2018-02-26T22:48:03.886Z,10.25
2018-02-26T22:50:43.606Z,8.40
2018-02-26T22:53:22.022Z,9.00
2018-02-26T22:56:01.534Z,9.30
2018-02-26T22:58:40.662Z,10.18
2018-02-26T23:01:18.731Z,9.95
2018-02-26T23:03:57.271Z,8.93
2018-02-26T23:06:35.860Z,9.35
2018-02-26T23:09:16.076Z,8.98
2018-02-26T23:11:55.141Z,9.27
2018-02-26T23:14:35.741Z,7.78
2018-02-26T23:17:14.099Z,7.43
2018-02-26T23:19:52.491Z,5.78
2018-02-26T23:22:32.699Z,5.80
2018-02-26T23:25:12.803Z,8.13
2018-02-26T23:27:52.270Z,9.93
2018-02-26T23:30:33.759Z,8.50
2018-02-26T23:33:12.227Z,10.80
2018-02-26T23:35:51.898Z,9.57
2018-02-26T23:38:30.284Z,9.23
2018-02-26T23:41:09.652Z,9.52
2018-02-26T23:43:49.824Z,9.25
2018-02-26T23:46:27.823Z,8.80
2018-02-26T23:49:06.372Z,8.05
2018-02-26T23:51:44.775Z,8.00
2018-02-26T23:54:32.390Z,9.15
2018-02-26T23:57:11.666Z,7.90
2018-02-26T23:59:50.056Z,7.68
